< < Back
Terminal Aerodrome Forecast


Current Version              Previous Versions:   1  2  3  4  5  6  7  8  9  

Terminal Aerodrome Forecast

080
FTUS44 KMRX 310531
TAFCHA
TAF
KCHA 310531Z 3106/0106 00000KT P6SM SKC
     FM310900 00000KT P6SM BKN250
     FM311200 00000KT P6SM BKN100
     FM311400 26006KT P6SM BKN070
     FM311800 32010KT P6SM BKN050
     FM312100 32012KT P6SM OVC035
     FM010000 32015G25KT P6SM BKN050=



Latest METAR

014
SAUS80 KWBC 311500 RRB
MTRCHA
METAR KCHA 311453Z 31006KT 10SM FEW028 SCT080 BKN110 13/06 A2999 RMK AO2
SLP154 T01280061 50008


USA.gov is the U.S. government's official web portal to all federal, state and local government web resources and services.